createdAt,value
2022-11-19T00:02:00.522Z,6.30
2022-11-19T00:04:29.848Z,6.30
2022-11-19T00:06:58.363Z,6.50
2022-11-19T00:09:26.308Z,6.40
2022-11-19T00:12:11.472Z,6.50
2022-11-19T00:14:39.553Z,6.40
2022-11-19T00:17:07.432Z,6.40
2022-11-19T00:19:36.693Z,6.20
2022-11-19T00:22:04.528Z,6.10
2022-11-19T00:24:32.402Z,6.20
2022-11-19T00:27:00.276Z,6.10
2022-11-19T00:29:28.158Z,6.00
2022-11-19T00:31:56.010Z,6.00
2022-11-19T00:34:23.865Z,6.10
2022-11-19T00:36:53.062Z,6.10
2022-11-19T00:39:22.073Z,5.90
2022-11-19T00:41:50.145Z,5.80
2022-11-19T00:44:18.031Z,5.60
2022-11-19T00:46:45.893Z,5.60
2022-11-19T00:49:13.726Z,5.60
2022-11-19T00:51:41.580Z,5.70
2022-11-19T00:54:10.790Z,5.50
2022-11-19T00:56:38.798Z,5.50
2022-11-19T00:59:06.778Z,5.30
2022-11-19T01:01:34.812Z,5.40
2022-11-19T01:04:02.744Z,5.60
2022-11-19T01:06:30.707Z,5.20
2022-11-19T01:08:58.597Z,5.00
2022-11-19T01:11:29.634Z,4.70
2022-11-19T01:13:58.802Z,4.50
2022-11-19T01:16:29.019Z,4.40
2022-11-19T01:18:57.155Z,4.50
2022-11-19T01:21:26.852Z,4.60
2022-11-19T01:23:54.954Z,4.70
2022-11-19T01:26:23.192Z,4.70
2022-11-19T01:28:52.816Z,4.90
2022-11-19T01:31:24.459Z,5.10
2022-11-19T01:33:52.468Z,5.00
2022-11-19T01:36:22.658Z,4.80
2022-11-19T01:38:51.747Z,4.90
2022-11-19T01:41:19.687Z,4.80
2022-11-19T01:43:49.934Z,5.10
2022-11-19T01:46:20.673Z,5.40
2022-11-19T01:48:52.361Z,5.10
2022-11-19T01:51:25.820Z,4.50
2022-11-19T01:53:57.627Z,4.40
2022-11-19T01:56:26.181Z,4.40
2022-11-19T01:58:58.258Z,4.40
2022-11-19T02:01:29.367Z,4.40
2022-11-19T02:04:00.526Z,4.40
2022-11-19T02:06:29.253Z,4.40
2022-11-19T02:08:57.437Z,4.40
2022-11-19T02:11:48.657Z,4.10
2022-11-19T02:14:32.046Z,4.20
2022-11-19T02:17:09.204Z,4.50
2022-11-19T02:20:36.728Z,4.60
2022-11-19T02:23:29.583Z,4.40
2022-11-19T02:26:45.867Z,4.40
2022-11-19T02:29:31.303Z,4.30
2022-11-19T02:32:04.266Z,4.30
2022-11-19T02:34:37.976Z,4.00
2022-11-19T02:37:12.040Z,4.00
2022-11-19T02:39:44.414Z,4.10
2022-11-19T02:42:18.396Z,4.20
2022-11-19T02:45:00.046Z,4.30
2022-11-19T02:47:34.529Z,4.30
2022-11-19T02:50:09.366Z,4.20
2022-11-19T02:52:38.015Z,4.20
2022-11-19T02:55:06.722Z,4.00
2022-11-19T02:57:36.332Z,4.20
2022-11-19T03:00:24.913Z,4.30
2022-11-19T03:03:14.834Z,4.20
2022-11-19T03:05:46.255Z,4.20
2022-11-19T03:08:14.323Z,4.60
2022-11-19T03:10:52.266Z,4.40
2022-11-19T03:13:42.241Z,4.10
2022-11-19T03:16:33.532Z,4.10
2022-11-19T03:19:09.113Z,4.10
2022-11-19T03:21:43.554Z,4.50
2022-11-19T03:24:16.209Z,4.40
2022-11-19T03:26:48.763Z,4.30
2022-11-19T03:29:17.613Z,4.40
2022-11-19T03:31:50.749Z,4.40
2022-11-19T03:34:23.041Z,4.40
2022-11-19T03:36:53.529Z,4.10
2022-11-19T03:39:22.639Z,4.00
2022-11-19T03:41:53.249Z,3.90
2022-11-19T03:44:25.345Z,3.80
2022-11-19T03:46:58.334Z,3.80
2022-11-19T03:49:32.557Z,3.60
2022-11-19T03:52:04.266Z,3.70
2022-11-19T03:54:32.425Z,3.90
2022-11-19T03:57:01.144Z,4.00
2022-11-19T03:59:30.095Z,4.10
2022-11-19T04:02:02.421Z,4.10
2022-11-19T04:04:37.955Z,3.90
2022-11-19T04:07:11.075Z,3.90
2022-11-19T04:09:39.936Z,3.90
2022-11-19T04:12:09.274Z,4.20
2022-11-19T04:14:37.145Z,4.40
2022-11-19T04:17:04.991Z,4.30
2022-11-19T04:19:34.198Z,4.20
2022-11-19T04:22:02.053Z,4.20
2022-11-19T04:24:29.995Z,4.30
2022-11-19T04:26:57.813Z,4.30
2022-11-19T04:29:25.676Z,4.10
2022-11-19T04:31:53.521Z,4.10
2022-11-19T04:34:21.393Z,4.00
2022-11-19T04:36:50.578Z,4.00
2022-11-19T04:39:18.975Z,4.00
2022-11-19T04:41:47.073Z,3.80
2022-11-19T04:44:14.938Z,3.70
2022-11-19T04:46:42.766Z,3.40
2022-11-19T04:49:10.632Z,3.30
2022-11-19T04:51:38.533Z,3.30
2022-11-19T04:54:08.576Z,3.40
2022-11-19T04:56:36.456Z,3.20
2022-11-19T04:59:04.533Z,3.30
2022-11-19T05:01:32.918Z,3.40
2022-11-19T05:04:00.860Z,3.50
2022-11-19T05:06:28.706Z,3.50
2022-11-19T05:08:56.524Z,3.60
2022-11-19T05:11:25.758Z,3.50
2022-11-19T05:13:53.652Z,3.60
2022-11-19T05:16:21.515Z,3.60
2022-11-19T05:18:49.352Z,3.50
2022-11-19T05:21:17.235Z,3.50
2022-11-19T05:23:45.079Z,3.70
2022-11-19T05:26:12.926Z,3.90
2022-11-19T05:28:42.094Z,3.80
2022-11-19T05:31:10.337Z,3.80
2022-11-19T05:33:38.257Z,3.90
2022-11-19T05:36:06.995Z,3.90
2022-11-19T05:38:34.902Z,3.70
2022-11-19T05:41:02.708Z,3.80
2022-11-19T05:43:30.568Z,3.70
2022-11-19T05:46:02.309Z,3.40
2022-11-19T05:48:30.539Z,3.40
2022-11-19T05:50:58.685Z,3.20
2022-11-19T05:53:27.206Z,3.20
2022-11-19T05:55:55.078Z,3.10
2022-11-19T05:58:22.984Z,3.30
2022-11-19T06:00:55.457Z,3.30
2022-11-19T06:03:24.682Z,3.00
2022-11-19T06:05:53.003Z,2.90
2022-11-19T06:08:20.806Z,2.90
2022-11-19T06:10:48.648Z,2.80
2022-11-19T06:13:16.453Z,2.90
2022-11-19T06:15:44.277Z,3.20
2022-11-19T06:18:12.105Z,3.30
2022-11-19T06:20:41.271Z,3.10
2022-11-19T06:23:09.081Z,3.10
2022-11-19T06:25:36.907Z,3.00
2022-11-19T06:28:05.008Z,3.20
2022-11-19T06:30:32.824Z,3.20
2022-11-19T06:33:00.754Z,3.30
2022-11-19T06:35:28.555Z,3.40
2022-11-19T06:37:57.750Z,3.50
2022-11-19T06:40:25.603Z,3.50
2022-11-19T06:42:53.493Z,3.40
2022-11-19T06:45:21.469Z,3.60
2022-11-19T06:47:49.992Z,3.40
2022-11-19T06:50:18.126Z,3.30
2022-11-19T06:52:46.068Z,3.40
2022-11-19T06:55:15.403Z,3.50
2022-11-19T06:57:43.269Z,3.40
2022-11-19T07:00:12.721Z,3.20
2022-11-19T07:02:40.955Z,3.20
2022-11-19T07:05:09.464Z,3.20
2022-11-19T07:07:37.407Z,3.50
2022-11-19T07:10:06.000Z,3.60
2022-11-19T07:12:35.266Z,3.50
2022-11-19T07:15:04.767Z,3.70
2022-11-19T07:17:33.286Z,4.00
2022-11-19T07:20:01.173Z,3.90
2022-11-19T07:22:29.014Z,3.40
2022-11-19T07:24:56.867Z,3.30
2022-11-19T07:27:24.760Z,3.40
2022-11-19T07:29:53.961Z,3.30
2022-11-19T07:32:21.809Z,3.30
2022-11-19T07:34:49.653Z,3.50
2022-11-19T07:37:18.498Z,3.50
2022-11-19T07:39:46.894Z,3.20
2022-11-19T07:42:32.462Z,3.20
2022-11-19T07:45:02.982Z,3.00
2022-11-19T07:47:30.966Z,3.00
2022-11-19T07:49:58.813Z,3.00
2022-11-19T07:52:26.678Z,2.70
2022-11-19T07:54:54.521Z,2.80
2022-11-19T07:57:27.226Z,2.60
2022-11-19T07:59:57.903Z,3.10
2022-11-19T08:02:27.106Z,3.60
2022-11-19T08:04:54.959Z,3.70
2022-11-19T08:07:22.930Z,3.40
2022-11-19T08:09:50.865Z,3.20
2022-11-19T08:12:18.732Z,3.10
2022-11-19T08:14:46.573Z,3.30
2022-11-19T08:17:31.874Z,3.10
2022-11-19T08:20:01.093Z,3.00
2022-11-19T08:22:29.792Z,3.10
2022-11-19T08:24:57.656Z,3.10
2022-11-19T08:27:25.569Z,3.00
2022-11-19T08:29:53.397Z,3.20
2022-11-19T08:32:21.266Z,3.10
2022-11-19T08:34:49.128Z,2.60
2022-11-19T08:37:18.289Z,2.70
2022-11-19T08:39:46.119Z,2.80
2022-11-19T08:42:31.277Z,2.60
2022-11-19T08:44:59.117Z,2.50
2022-11-19T08:47:26.931Z,2.40
2022-11-19T08:49:54.772Z,2.90
2022-11-19T08:52:23.930Z,3.00
2022-11-19T08:54:52.001Z,3.10
2022-11-19T08:57:19.886Z,2.90
2022-11-19T08:59:47.733Z,2.40
2022-11-19T09:02:15.595Z,2.60
2022-11-19T09:04:43.451Z,3.00
2022-11-19T09:07:11.372Z,3.10
2022-11-19T09:09:40.612Z,2.70
2022-11-19T09:12:09.712Z,2.70
2022-11-19T09:14:37.567Z,2.50
2022-11-19T09:17:05.447Z,2.40
2022-11-19T09:19:33.284Z,2.50
2022-11-19T09:22:01.133Z,2.60
2022-11-19T09:24:29.045Z,2.70
2022-11-19T09:27:02.037Z,2.60
2022-11-19T09:29:30.315Z,2.10
2022-11-19T09:31:58.185Z,2.10
2022-11-19T09:34:26.060Z,2.20
2022-11-19T09:36:53.890Z,2.20
2022-11-19T09:39:21.762Z,2.00
2022-11-19T09:41:56.566Z,2.00
2022-11-19T09:44:54.305Z,2.20
2022-11-19T09:47:32.200Z,2.20
2022-11-19T09:50:07.470Z,2.20
2022-11-19T09:52:45.290Z,2.20
2022-11-19T09:55:20.352Z,2.10
2022-11-19T09:57:52.303Z,2.20
2022-11-19T10:00:25.963Z,2.40
2022-11-19T10:02:54.464Z,2.60
2022-11-19T10:05:30.824Z,2.50
2022-11-19T10:08:12.250Z,2.70
2022-11-19T10:10:43.178Z,2.90
2022-11-19T10:13:33.664Z,3.00
2022-11-19T10:16:16.004Z,2.90
2022-11-19T10:18:55.741Z,3.20
2022-11-19T10:21:27.854Z,3.20
2022-11-19T10:24:04.794Z,3.30
2022-11-19T10:26:36.507Z,3.10
2022-11-19T10:29:15.233Z,3.20
2022-11-19T10:31:48.307Z,3.10
2022-11-19T10:34:23.210Z,2.80
2022-11-19T10:36:57.548Z,2.80
2022-11-19T10:39:30.417Z,2.90
2022-11-19T10:42:07.230Z,3.20
2022-11-19T10:44:41.015Z,2.90
2022-11-19T10:47:17.427Z,3.50
2022-11-19T10:49:45.478Z,3.40
2022-11-19T10:52:23.395Z,3.00
2022-11-19T10:54:53.673Z,3.30
2022-11-19T10:57:22.794Z,3.20
2022-11-19T10:59:52.977Z,3.40
2022-11-19T11:02:33.691Z,3.20
2022-11-19T11:05:13.854Z,3.00
2022-11-19T11:07:51.300Z,2.90
2022-11-19T11:10:31.704Z,2.70
2022-11-19T11:13:24.346Z,2.70
2022-11-19T11:15:54.782Z,3.00
2022-11-19T11:18:30.431Z,3.30
2022-11-19T11:20:59.234Z,3.60
2022-11-19T11:23:29.033Z,3.70
2022-11-19T11:26:04.516Z,3.60
2022-11-19T11:28:32.655Z,3.80
2022-11-19T11:31:01.995Z,3.60
2022-11-19T11:33:34.475Z,3.30
2022-11-19T11:36:06.824Z,3.30
2022-11-19T11:38:42.281Z,3.40
2022-11-19T11:42:01.943Z,3.40
2022-11-19T11:44:02.801Z,3.30
2022-11-19T11:46:42.891Z,3.20
2022-11-19T11:49:26.224Z,3.40
2022-11-19T11:52:05.145Z,3.30
2022-11-19T11:54:33.195Z,3.30
2022-11-19T11:57:18.407Z,3.30
2022-11-19T11:59:47.007Z,3.30
2022-11-19T12:02:23.449Z,3.10
2022-11-19T12:04:54.741Z,2.90
2022-11-19T12:07:40.559Z,2.90
2022-11-19T12:10:23.577Z,2.90
2022-11-19T12:13:02.975Z,2.80
2022-11-19T12:15:41.070Z,2.80
2022-11-19T12:18:18.612Z,2.90
2022-11-19T12:20:54.305Z,3.30
2022-11-19T12:23:36.461Z,3.80
2022-11-19T12:26:13.850Z,3.80
2022-11-19T12:29:01.096Z,4.10
2022-11-19T12:31:42.988Z,3.90
2022-11-19T12:34:29.815Z,3.80
2022-11-19T12:37:06.107Z,3.50
2022-11-19T12:39:46.518Z,3.60
2022-11-19T12:42:49.205Z,3.90
2022-11-19T12:45:30.446Z,3.90
2022-11-19T12:48:17.482Z,3.90
2022-11-19T12:50:54.189Z,3.80
2022-11-19T12:53:45.560Z,3.50
2022-11-19T12:56:24.673Z,3.60
2022-11-19T12:59:07.664Z,3.80
2022-11-19T13:01:41.633Z,3.90
2022-11-19T13:04:16.277Z,4.20
2022-11-19T13:06:47.309Z,4.30
2022-11-19T13:09:22.783Z,4.10
2022-11-19T13:11:54.337Z,4.30
2022-11-19T13:14:28.872Z,4.30
2022-11-19T13:16:57.997Z,4.30
2022-11-19T13:19:30.315Z,4.00
2022-11-19T13:22:01.464Z,3.80
2022-11-19T13:24:35.107Z,3.80
2022-11-19T13:27:06.192Z,3.70
2022-11-19T13:29:40.095Z,3.60
2022-11-19T13:32:16.895Z,3.50
2022-11-19T13:34:53.633Z,3.50
2022-11-19T13:37:35.423Z,3.70
2022-11-19T13:40:14.806Z,3.60
2022-11-19T13:43:24.887Z,3.70
2022-11-19T13:45:54.922Z,3.60
2022-11-19T13:48:27.145Z,3.50
2022-11-19T13:50:59.969Z,3.40
2022-11-19T13:53:34.894Z,3.30
2022-11-19T13:56:04.412Z,3.30
2022-11-19T13:58:37.695Z,3.40
2022-11-19T14:01:36.772Z,3.40
2022-11-19T14:04:20.431Z,3.50
2022-11-19T14:07:02.282Z,3.50
2022-11-19T14:09:39.728Z,3.40
2022-11-19T14:12:55.166Z,3.50
2022-11-19T14:16:00.618Z,3.40
2022-11-19T14:18:54.304Z,3.30
2022-11-19T14:22:04.493Z,3.10
2022-11-19T14:25:08.796Z,3.50
2022-11-19T14:27:38.032Z,3.60
2022-11-19T14:30:12.203Z,3.60
2022-11-19T14:32:46.891Z,3.60
2022-11-19T14:35:30.229Z,3.70
2022-11-19T14:38:03.076Z,3.80
2022-11-19T14:40:33.089Z,3.90
2022-11-19T14:43:46.213Z,3.90
2022-11-19T14:46:27.328Z,4.00
2022-11-19T14:49:02.368Z,3.80
2022-11-19T14:51:36.849Z,3.90
2022-11-19T14:54:19.109Z,3.70
2022-11-19T14:56:49.650Z,3.80
2022-11-19T14:59:24.605Z,3.70
2022-11-19T15:01:58.157Z,4.00
2022-11-19T15:04:34.476Z,4.30
2022-11-19T15:07:09.428Z,4.10
2022-11-19T15:10:09.779Z,3.90
2022-11-19T15:12:48.380Z,3.70
2022-11-19T15:15:43.469Z,3.60
2022-11-19T15:18:37.541Z,3.90
2022-11-19T15:21:47.074Z,3.80
2022-11-19T15:24:24.588Z,3.80
2022-11-19T15:27:04.467Z,3.70
2022-11-19T15:29:57.993Z,4.20
2022-11-19T15:32:43.846Z,4.10
2022-11-19T15:35:34.282Z,3.90
2022-11-19T15:38:11.532Z,3.90
2022-11-19T15:40:43.367Z,4.50
2022-11-19T15:43:20.772Z,4.50
2022-11-19T15:45:54.113Z,4.30
2022-11-19T15:48:28.669Z,4.60
2022-11-19T15:50:56.708Z,4.90
2022-11-19T15:53:25.119Z,4.80
2022-11-19T15:55:56.702Z,4.60
2022-11-19T15:58:28.471Z,4.50
2022-11-19T16:00:56.954Z,4.70
2022-11-19T16:03:26.345Z,4.70
2022-11-19T16:06:03.681Z,5.50
2022-11-19T16:08:32.133Z,6.10
2022-11-19T16:11:20.486Z,6.30
2022-11-19T16:14:10.074Z,5.90
2022-11-19T16:16:55.862Z,5.20
2022-11-19T16:19:25.203Z,5.10
2022-11-19T16:21:57.468Z,5.20
2022-11-19T16:24:44.895Z,5.10
2022-11-19T16:27:19.547Z,5.00
2022-11-19T16:29:47.620Z,4.90
2022-11-19T16:32:17.898Z,6.00
2022-11-19T16:34:47.919Z,6.70
2022-11-19T16:37:18.227Z,7.40
2022-11-19T16:39:52.142Z,7.30
2022-11-19T16:42:26.730Z,7.70
2022-11-19T16:44:56.594Z,7.50
2022-11-19T16:47:29.870Z,6.10
2022-11-19T16:50:02.950Z,5.70
2022-11-19T16:52:41.650Z,5.60
2022-11-19T16:55:48.246Z,5.70
2022-11-19T16:58:19.008Z,5.70
2022-11-19T17:00:50.253Z,5.40
2022-11-19T17:03:29.133Z,5.30
2022-11-19T17:05:59.605Z,5.50
2022-11-19T17:08:30.818Z,6.20
2022-11-19T17:11:36.215Z,6.20
2022-11-19T17:14:23.239Z,6.10
2022-11-19T17:16:53.323Z,5.60
2022-11-19T17:19:26.665Z,5.90
2022-11-19T17:22:00.108Z,6.00
2022-11-19T17:24:31.377Z,5.80
2022-11-19T17:26:59.870Z,5.60
2022-11-19T17:29:28.133Z,6.20
2022-11-19T17:31:57.304Z,6.70
2022-11-19T17:34:31.275Z,7.10
2022-11-19T17:37:00.898Z,7.60
2022-11-19T17:39:28.752Z,7.50
2022-11-19T17:42:14.669Z,7.10
2022-11-19T17:44:42.726Z,6.80
2022-11-19T17:47:23.962Z,6.40
2022-11-19T17:49:52.801Z,6.10
2022-11-19T17:52:26.728Z,5.70
2022-11-19T17:54:56.729Z,5.80
2022-11-19T17:57:24.741Z,5.80
2022-11-19T17:59:53.013Z,5.90
2022-11-19T18:02:21.709Z,6.50
2022-11-19T18:04:50.073Z,7.30
2022-11-19T18:07:18.079Z,7.20
2022-11-19T18:09:47.374Z,6.90
2022-11-19T18:12:17.670Z,7.10
2022-11-19T18:14:46.389Z,7.80
2022-11-19T18:17:15.788Z,8.30
2022-11-19T18:19:44.141Z,7.90
2022-11-19T18:22:17.965Z,7.50
2022-11-19T18:24:47.927Z,7.80
2022-11-19T18:27:16.414Z,8.00
2022-11-19T18:29:44.491Z,7.60
2022-11-19T18:32:15.802Z,7.20
2022-11-19T18:34:44.091Z,7.30
2022-11-19T18:37:11.956Z,7.90
2022-11-19T18:39:40.138Z,7.90
2022-11-19T18:42:10.979Z,7.70
2022-11-19T18:44:38.565Z,7.50
2022-11-19T18:47:08.406Z,7.50
2022-11-19T18:49:36.335Z,8.10
2022-11-19T18:52:05.568Z,8.20
2022-11-19T18:54:33.538Z,7.80
2022-11-19T18:57:02.345Z,7.50
2022-11-19T18:59:31.564Z,7.20
2022-11-19T19:01:59.615Z,7.70
2022-11-19T19:04:27.692Z,8.30
2022-11-19T19:06:56.000Z,8.00
2022-11-19T19:09:24.401Z,7.50
2022-11-19T19:12:13.808Z,7.00
2022-11-19T19:14:43.651Z,6.70
2022-11-19T19:17:11.672Z,7.50
2022-11-19T19:19:39.837Z,7.70
2022-11-19T19:22:08.787Z,7.20
2022-11-19T19:24:36.711Z,6.80
2022-11-19T19:27:05.363Z,6.40
2022-11-19T19:29:33.534Z,6.70
2022-11-19T19:32:02.774Z,7.40
2022-11-19T19:34:30.878Z,7.40
2022-11-19T19:36:58.792Z,7.00
2022-11-19T19:39:26.896Z,6.60
2022-11-19T19:41:54.844Z,7.00
2022-11-19T19:44:22.690Z,7.50
2022-11-19T19:46:50.785Z,7.30
2022-11-19T19:49:20.377Z,6.90
2022-11-19T19:51:48.534Z,6.70
2022-11-19T19:54:16.869Z,7.00
2022-11-19T19:56:44.714Z,7.70
2022-11-19T19:59:13.948Z,7.40
2022-11-19T20:01:45.206Z,7.00
2022-11-19T20:04:13.176Z,6.60
2022-11-19T20:06:46.628Z,7.00
2022-11-19T20:09:15.221Z,7.70
2022-11-19T20:11:43.061Z,7.50
2022-11-19T20:14:11.145Z,7.10
2022-11-19T20:16:41.766Z,6.70
2022-11-19T20:19:13.151Z,6.70
2022-11-19T20:21:42.853Z,7.20
2022-11-19T20:24:13.297Z,7.00
2022-11-19T20:26:42.933Z,6.60
2022-11-19T20:29:13.440Z,6.30
2022-11-19T20:31:45.784Z,6.70
2022-11-19T20:34:13.867Z,7.20
2022-11-19T20:36:43.997Z,7.10
2022-11-19T20:39:12.504Z,6.70
2022-11-19T20:41:57.918Z,6.30
2022-11-19T20:44:25.828Z,6.90
2022-11-19T20:46:55.375Z,7.50
2022-11-19T20:49:26.422Z,7.50
2022-11-19T20:51:56.400Z,7.30
2022-11-19T20:54:25.559Z,7.40
2022-11-19T20:56:54.983Z,7.90
2022-11-19T20:59:24.020Z,7.90
2022-11-19T21:01:53.296Z,7.30
2022-11-19T21:04:21.747Z,6.70
2022-11-19T21:06:50.617Z,7.20
2022-11-19T21:09:20.439Z,7.70
2022-11-19T21:11:48.702Z,7.70
2022-11-19T21:14:16.546Z,7.90
2022-11-19T21:16:44.493Z,8.20
2022-11-19T21:19:13.451Z,7.70
2022-11-19T21:21:41.353Z,7.20
2022-11-19T21:24:09.458Z,6.70
2022-11-19T21:26:38.831Z,6.60
2022-11-19T21:29:06.755Z,6.40
2022-11-19T21:31:40.417Z,6.00
2022-11-19T21:34:10.139Z,6.00
2022-11-19T21:36:38.253Z,6.10
2022-11-19T21:39:07.130Z,5.90
2022-11-19T21:41:35.694Z,5.50
2022-11-19T21:44:06.048Z,5.20
2022-11-19T21:46:34.202Z,5.20
2022-11-19T21:49:02.418Z,6.00
2022-11-19T21:51:30.377Z,6.30
2022-11-19T21:53:59.230Z,6.00
2022-11-19T21:56:31.358Z,6.00
2022-11-19T21:59:04.681Z,6.30
2022-11-19T22:01:32.560Z,7.00
2022-11-19T22:04:00.412Z,7.10
2022-11-19T22:06:28.243Z,6.90
2022-11-19T22:08:56.331Z,6.60
2022-11-19T22:11:30.117Z,7.00
2022-11-19T22:13:59.593Z,7.70
2022-11-19T22:16:29.301Z,7.80
2022-11-19T22:18:57.211Z,7.40
2022-11-19T22:21:25.076Z,7.00
2022-11-19T22:23:53.575Z,7.40
2022-11-19T22:26:21.835Z,7.20
2022-11-19T22:28:49.680Z,6.70
2022-11-19T22:31:17.570Z,6.30
2022-11-19T22:33:51.382Z,6.90
2022-11-19T22:36:20.974Z,7.30
2022-11-19T22:38:49.058Z,6.50
2022-11-19T22:41:18.355Z,6.00
2022-11-19T22:43:46.543Z,6.50
2022-11-19T22:46:15.426Z,7.10
2022-11-19T22:48:43.305Z,6.90
2022-11-19T22:51:15.133Z,6.50
2022-11-19T22:53:43.769Z,6.50
2022-11-19T22:56:13.247Z,7.10
2022-11-19T22:58:41.542Z,6.90
2022-11-19T23:01:15.884Z,6.70
2022-11-19T23:03:43.892Z,6.50
2022-11-19T23:06:13.240Z,7.10
2022-11-19T23:08:41.100Z,7.20
2022-11-19T23:11:09.379Z,6.70
2022-11-19T23:13:38.990Z,6.10
2022-11-19T23:16:08.740Z,6.60
2022-11-19T23:18:38.241Z,7.00
2022-11-19T23:21:08.256Z,6.70
2022-11-19T23:23:37.793Z,6.30
2022-11-19T23:26:07.726Z,6.60
2022-11-19T23:28:37.836Z,7.20
2022-11-19T23:31:07.278Z,6.80
2022-11-19T23:33:35.231Z,6.40
2022-11-19T23:36:04.935Z,6.60
2022-11-19T23:38:33.020Z,7.10
2022-11-19T23:41:02.685Z,6.80
2022-11-19T23:43:30.823Z,6.40
2022-11-19T23:46:04.892Z,6.50
2022-11-19T23:48:33.282Z,7.10
2022-11-19T23:51:02.999Z,7.40
2022-11-19T23:53:31.043Z,7.60
2022-11-19T23:55:59.020Z,7.90
2022-11-19T23:58:29.004Z,8.10
